Overview Statistics Trail Chart Weather Telemetry Raw packets
 

This is the latest recevied weather packets stored in our database for station/object K7DC. If no packets are shown the sender has not sent any weather packets the latest 10 day(s).

<< 103 104 105 106 107 108 109 >>
Time Temp. Humidity Pressure Rain* Wind** Luminosity Snow
1787861235 42.22° C 22% 1015.4 hPa 0 mm - 881 W/m² -
1787860934 40° C 24% 1015.5 hPa 0 mm - 885 W/m² -
1787860629 41.67° C 24% 1015.6 hPa 0 mm - 887 W/m² -
1787860324 41.11° C 23% 1015.6 hPa 0 mm - 890 W/m² -
1787860020 40.56° C 24% 1015.7 hPa 0 mm - 893 W/m² -
1787859715 38.89° C 25% 1015.9 hPa 0 mm - 891 W/m² -
1787859415 38.89° C 26% 1015.8 hPa 0 mm - 894 W/m² -
1787859109 40° C 25% 1015.8 hPa 0 mm - 894 W/m² -
1787858806 40.56° C 24% 1016 hPa 0 mm - 891 W/m² -
1787858502 40° C 25% 1015.9 hPa 0 mm - 891 W/m² -
1787858201 40° C 25% 1016 hPa 0 mm - 891 W/m² -
1787857897 41.11° C 25% 1016.4 hPa 0 mm - 890 W/m² -
1787857593 41.67° C 24% 1016.4 hPa 0 mm - 886 W/m² -
1787857287 41.11° C 23% 1016.4 hPa 0 mm - 882 W/m² -
1787856986 40.56° C 25% 1016.4 hPa 0 mm - 877 W/m² -
1787856680 38.89° C 27% 1016.5 hPa 0 mm - 870 W/m² -
1787856386 38.89° C 29% 1016.6 hPa 0 mm - 869 W/m² -
1787856076 41.11° C 27% 1016.5 hPa 0 mm - 865 W/m² -
1787855776 41.67° C 25% 1016.7 hPa 0 mm - 860 W/m² -
1787855471 40.56° C 27% 1016.5 hPa 0 mm - 851 W/m² -
1787855166 39.44° C 28% 1016.7 hPa 0 mm - 846 W/m² -
1787854861 38.33° C 31% 1016.7 hPa 0 mm - 841 W/m² -
1787854561 37.78° C 31% 1016.9 hPa 0 mm - 834 W/m² -
1787854255 37.78° C 33% 1016.9 hPa 0 mm - 828 W/m² -
1787853950 37.22° C 34% 1016.9 hPa 0 mm - 819 W/m² -

* Rain latest hour (hover to see other rain measurements)
** Current wind speed in m/s (hover to see current wind gust speed)